航空気象通報

ウインドサーファーのための航空気象通報による風予報です。

10/31-11/2の航空気象通報

2016年10月31日 23時34分41秒 | TAF
羽田空港
TAF RJTT 311105Z 3112/0118 02006KT 9999 FEW030
TEMPO 3121/0103 3000 RA BR
BECMG 0103/0106 14006KT
BECMG 0109/0112 02018KT
日本時間31日21時-1日12時:020度から6ノットの風
12-15時:風が変化
15-18時:140度から6ノットの風
18-21時:風が変化
21時-2日03時:020度から18ノットの風

但し、1日06-12時の間:ときどき

静岡空港
TAF RJNS 311105Z 3112/0118 27006KT 9999 FEW030 SCT060
TEMPO 3122/3124 4000 RA BR FEW005 BKN008
BECMG 0103/0106 27016KT
BECMG 0112/0115 06006KT
日本時間31日21時-1日12時:270度から6ノットの風
12-15時:風が変化
15-21時:270度から16ノットの風
21-24時:風が変化
2日00-03時:060度から6ノットの風

但し、1日07-09時の間:ときどき

福岡空港
TAF RJFF 311106Z 3112/0118 03005KT 9000 -RA FEW010 SCT020 BKN040
BECMG 3117/3119 33013KT
TEMPO 3120/0103 32016G27KT
日本時間31日21時-1日02時:030度から5ノットの風
02-04時:風が変化
04時-2日03時:330度から13ノットの風


那覇空港
TAF ROAH 311105Z 3112/0118 36016KT 9999 FEW025 BKN045
日本時間31日21時-2日03時:360度から16ノットの風


石垣空港
TAF ROIG 311107Z 3112/0118 02017KT 9999 FEW020 BKN040
TEMPO 3121/0118 03025G35KT
日本時間31日21時-2日03時:020度から17ノットの風
但し、1日06時-2日03時の間:ときどき030度から25ノット、突風35ノット


マウイのカフルイ空港
PHOG 311137Z 3112/0112 05015G22KT P6SM VCSH SCT030 BKN050
FM312000 06016G27KT P6SM FEW030 SCT050
FM010900 05014G20KT P6SM FEW030 SCT050 AMD LTD TO VIS AND WIND TIL 311600
ハワイ時間31日02-10時:050度から15ノット、突風22ノット

10-23時:060度から16ノット、突風27ノット
23時-1日02時:050度から14ノット、突風20ノット


サイパン空港
TAF PGSN 311136Z 3112/0112 10015G24KT P6SM VCSH FEW025 SCT040 BKN110
マリアナ時間31日22時-1日02時:100度から15ノット、突風24ノット

コメント

10/30-11/1の航空気象通報

2016年10月30日 20時44分41秒 | TAF
羽田空港
TAF RJTT 301105Z 3012/3118 36008KT 9999 FEW030 BKN050
BECMG 3100/3103 14008KT
BECMG 3112/3115 36008KT
日本時間30日21時-31日09時:360度から8ノットの風
09-12時:風が変化
12-21時:140度から8ノットの風
21-24時:風が変化
1日00-03時:360度から8ノットの風


静岡空港
TAF RJNS 301108Z 3012/3118 34004KT 9999 FEW015 SCT030
BECMG 3103/3106 24010KT
日本時間30日21時-31日12時:340度から4ノットの風
12-15時:風が変化
15時-1日03時:240度から10ノットの風


福岡空港
TAF RJFF 301107Z 3012/3118 13004KT 9999 FEW030
BECMG 3100/3103 34008KT
日本時間30日21時-31日09時:130度から4ノットの風
09-12時:風が変化
12時-1日03時:340度から8ノットの風


那覇空港
TAF ROAH 301107Z 3012/3118 03008KT 9999 FEW025 SCT040
日本時間30日21時-1日03時:030度から8ノットの風


石垣空港
TAF ROIG 301108Z 3012/3118 05014KT 9999 FEW020 BKN040
日本時間30日21時-1日03時:050度から14ノットの風


マウイのカフルイ空港
PHOG 301140Z 3012/3112 05012G18KT P6SM VCSH FEW030 SCT050
FM301900 06018G25KT P6SM VCSH FEW030 SCT050
FM310500 05012G20KT P6SM VCSH FEW030 SCT050
ハワイ時間30日02-09時:050度から12ノット、突風18ノット
09-19時:060度から18ノット、突風25ノット
19時-31日02時:050度から12ノット、突風20ノット


サイパン空港
TAF PGSN 301141Z 3012/3112 06015G25KT P6SM VCSH FEW016 SCT040 BKN120
TEMPO 3012/3016 -SHRA SCT014 BKN030
FM310000 08020G30KT P6SM VCSH SCT016 SCT030 BKN100
マリアナ時間30日22時-31日10時:060度から15ノット、突風25ノット
10-22時:080度から20ノット、突風30ノット

但し、30日22時-31日02時の間:ときどき
コメント

10/29-10/31の航空気象通報

2016年10月29日 23時00分24秒 | TAF
羽田空港
TAF RJTT 291108Z 2912/3018 03016KT 9999 FEW030 BKN050
日本時間29日21時-31日03時:030度から16ノットの風


静岡空港
TAF RJNS 291107Z 2912/3018 05008KT 9999 FEW015 BKN040
BECMG 3009/3012 35006KT
日本時間29日21時-30日18時:050度から8ノットの風
18-21時:風が変化
21時-31日03時:350度から6ノットの風


福岡空港
TAF RJFF 291106Z 2912/3018 13005KT 9999 FEW030
BECMG 3000/3003 35010KT
BECMG 3009/3012 14005KT
日本時間29日21時-30日09時:130度から5ノットの風
09-12時:風が変化
12-18時:350度から10ノットの風
18-21時:風が変化
21時-31日03時:140度から5ノットの風


那覇空港
TAF ROAH 291105Z 2912/3018 02018KT 9999 FEW025 BKN040
日本時間29日21時-31日03時:020度から18ノットの風


石垣空港
TAF ROIG 291106Z 2912/3018 04020KT 9999 FEW020 BKN030
日本時間29日21時-31日03時:040度から20ノットの風


マウイのカフルイ空港
PHOG 291139Z 2912/3012 06010KT P6SM FEW030 SCT060
FM291800 06014G21KT P6SM FEW030 SCT060
FM292300 05020G28KT P6SM SCT030 BKN060
FM300400 06014G21KT P6SM FEW030 SCT060
ハワイ時間29日02-08時:060度から10ノットの風
08-13時:060度から14ノット、突風21ノット

13-18時:050度から20ノット、突風28ノット

18時-30日02時:060度から14ノット、突風21ノット


サイパン空港
TAF PGSN 291120Z 2912/3012 08009KT P6SM VCSH FEW020 SCT060
FM291600 07012KT P6SM VCSH FEW016 SCT050 BKN120
TEMPO 2916/2920 5SM SHRA SCT014 BKN025
FM300100 06011G18KT P6SM VCSH FEW016 SCT040 BKN120
マリアナ時間29日22時-30日02時:080度から9ノットの風

02-11時:070度から16ノットの風
11-22時:060度から11ノット、突風18ノット
コメント

10/28-10/30の航空気象通報

2016年10月29日 00時37分00秒 | TAF
羽田空港
TAF RJTT 281105Z 2812/2918 34010KT 8000 FEW008 BKN015
TEMPO 2812/2815 2500 RA BR FEW003 BKN005
TEMPO 2815/2818 4000 -RA BR FEW005 BKN008
BECMG 2819/2821 35020KT
BECMG 2906/2909 05016KT
日本時間28日21時-29日04時:340度から10ノットの風
04-06時:風が変化
05-15時:350度から20ノットの風
15-18時:風が変化
18時-30日03時:050度から16ノットの風

但し、28日21-24時の間:ときどき
但し、29日00-03時の間:ときどき

静岡空港
TAF RJNS 281106Z 2812/2918 04004KT 4000 -SHRA BR FEW005 BKN012
TEMPO 2812/2817 1500 -SHRA BR FEW001 BKN003
BECMG 2816/2818 26013KT 9999 NSW
BECMG 2900/2903 12008KT
日本時間28日21時-29日01時:040度から4ノットの風
01-03時:風が変化
03-09時:260度から13ノットの風
09-12時:風が変化
12時-30日03時:120度から8ノットの風
、29日01-03時の後、

福岡空港
TAF RJFF 281106Z 2812/2918 02013KT 7000 -SHRA FEW005 SCT010 BKN015
TEMPO 2812/2815 03015G25KT 4000 -SHRA BR FEW005 BKN008 BKN015
BECMG 2912/2915 07003KT
日本時間28日21時-29日21時:020度から13ノットの風
但し、28日21-24時の間:ときどき030度から15ノット、突風25ノット
21-24時:風が変化
30日00-03時:070度から3ノットの風


那覇空港
TAF ROAH 281105Z 2812/2918 01009KT 9999 FEW015 SCT025
BECMG 2822/2824 02020KT
日本時間28日21時-29日07時:010度から9ノットの風
07-09時:風が変化
09時-30日03時:020度から20ノットの風


石垣空港
TAF ROIG 281107Z 2812/2918 05011KT 9999 FEW015
BECMG 2900/2903 05021KT
日本時間28日21時-29日09時:050度から11ノットの風
09-12時:風が変化
12時-30日03時:050度から21ノットの風


マウイのカフルイ空港
PHOG 281127Z 2812/2912 06010KT P6SM VCSH FEW030 SCT050 BKN250
FM281900 06020G30KT P6SM VCSH FEW030 SCT050
FM290400 06012G20KT P6SM VCSH FEW030 SCT050 AMD LTD TO VIS AND WIND TIL 281600
ハワイ時間28日02-09時:060度から10ノットの風

09-18時:060度から20ノット、突風30ノット
18時-29日02時:060度から12ノット、突風20ノット


サイパン空港
TAF PGSN 281120Z 2812/2912 07009KT P6SM VCSH FEW020 SCT050 SCT120
FM290100 07011G18KT P6SM VCSH FEW020 SCT050
マリアナ時間28日22時-29日11時:070度から9ノットの風
01-22時:070度から11ノット、突風18ノット
コメント

10/27-10/29の航空気象通報

2016年10月28日 01時13分09秒 | TAF
羽田空港
TAF RJTT 271105Z 2712/2818 07004KT 9999 FEW030 SCT050
BECMG 2806/2809 36008KT
TEMPO 2806/2815 4000 -RA BR FEW003 BKN008
日本時間27日21時-28日15時:070度から4ノットの風
15-18時:風が変化
18時-28日03時:360度から8ノットの風

但し、28日15-24時の間:ときどき

静岡空港
TAF RJNS 271106Z 2712/2818 10005KT 9999 FEW015 BKN030
BECMG 2714/2716 36004KT
BECMG 2800/2803 06006KT
TEMPO 2806/2812 4000 RA BR FEW003 BKN005
BECMG 2812/2815 34006KT
TEMPO 2812/2818 FEW003 BKN005
日本時間27日21-23時:100度から5ノットの風
23時-28日01時:風が変化
01-09時:360度から4ノットの風
09-12時:風が変化
12-21時:060度から6ノットの風
21時-29日03時:340度から6ノットの風

但し、28日15-21時の間:ときどき

福岡空港
TAF RJFF 271107Z 2712/2818 13006KT 9999 -RA FEW030 BKN045
TEMPO 2721/2803 3000 SHRA BR
TEMPO 2803/2806 4000 SHRA BR
BECMG 2806/2809 34013KT
TEMPO 2806/2815 4000 -SHRA BR FEW005 BKN008 BKN015
日本時間27日21時-28日15時:130度から6ノットの風
15-18時:風が変化
18時-29日03時:340度から13ノットの風


那覇空港
TAF ROAH 271105Z 2712/2818 33004KT 9999 FEW020 SCT035
日本時間27日21時-29日03時:330度から4ノットの風


石垣空港
TAF ROIG 271109Z 2712/2818 08006KT 9999 FEW015
日本時間27日21時-29日03時:080度から6ノットの風


マウイのカフルイ空港
PHOG 271122Z 2712/2812 05010KT P6SM VCSH FEW030 SCT045
FM272000 05020G28KT P6SM FEW030 SCT050
FM280400 05014G22KT P6SM VCSH FEW030 SCT045 AMD LTD TO VIS AND WIND TIL 271600
ハワイ時間27日02-10時:050度から10ノットの風
10-20時:050度から20ノット、突風28ノット
20時-28日02時:050度から14ノット、突風22ノット


サイパン空港
TAF PGSN 271120Z 2712/2812 06010KT P6SM VCSH FEW020 SCT060
FM280100 06012G20KT P6SM VCSH FEW020 SCT050
マリアナ時間27日22時-28日11時:060度から10ノットの風
01-22時:060度から12ノット、突風20ノット

コメント